sensor_id;sensor_type;location;lat;lon;timestamp;temperature;humidity
46508;DHT22;32223;53.654;10.014;2024-02-26T00:02:14;2.90;99.90
46508;DHT22;32223;53.654;10.014;2024-02-26T00:04:40;2.90;99.90
46508;DHT22;32223;53.654;10.014;2024-02-26T00:07:05;2.90;99.90
46508;DHT22;32223;53.654;10.014;2024-02-26T00:09:32;2.80;99.90
46508;DHT22;32223;53.654;10.014;2024-02-26T00:12:01;2.80;99.90
46508;DHT22;32223;53.654;10.014;2024-02-26T00:14:26;2.70;99.90
46508;DHT22;32223;53.654;10.014;2024-02-26T00:16:52;2.70;99.90
46508;DHT22;32223;53.654;10.014;2024-02-26T00:19:18;2.60;99.90
46508;DHT22;32223;53.654;10.014;2024-02-26T00:21:43;2.60;99.90
46508;DHT22;32223;53.654;10.014;2024-02-26T00:24:09;2.60;99.90
46508;DHT22;32223;53.654;10.014;2024-02-26T00:26:34;2.50;99.90
46508;DHT22;32223;53.654;10.014;2024-02-26T00:29:00;2.50;99.90
46508;DHT22;32223;53.654;10.014;2024-02-26T00:31:25;2.50;99.90
46508;DHT22;32223;53.654;10.014;2024-02-26T00:33:51;2.50;99.90
46508;DHT22;32223;53.654;10.014;2024-02-26T00:36:17;2.40;99.90
46508;DHT22;32223;53.654;10.014;2024-02-26T00:38:44;2.40;99.90
46508;DHT22;32223;53.654;10.014;2024-02-26T00:41:11;2.30;99.90
46508;DHT22;32223;53.654;10.014;2024-02-26T00:43:37;2.30;99.90
46508;DHT22;32223;53.654;10.014;2024-02-26T00:46:04;2.30;99.90
46508;DHT22;32223;53.654;10.014;2024-02-26T00:48:30;2.20;99.90
46508;DHT22;32223;53.654;10.014;2024-02-26T00:50:55;2.20;99.90
46508;DHT22;32223;53.654;10.014;2024-02-26T00:53:21;2.20;99.90
46508;DHT22;32223;53.654;10.014;2024-02-26T00:55:47;2.20;99.90
46508;DHT22;32223;53.654;10.014;2024-02-26T00:58:12;2.20;99.90
46508;DHT22;32223;53.654;10.014;2024-02-26T01:00:38;2.10;99.90
46508;DHT22;32223;53.654;10.014;2024-02-26T01:03:04;2.10;99.90
46508;DHT22;32223;53.654;10.014;2024-02-26T01:05:30;2.10;99.90
46508;DHT22;32223;53.654;10.014;2024-02-26T01:07:55;2.00;99.90
46508;DHT22;32223;53.654;10.014;2024-02-26T01:10:21;2.00;99.90
46508;DHT22;32223;53.654;10.014;2024-02-26T01:12:46;2.00;99.90
46508;DHT22;32223;53.654;10.014;2024-02-26T01:15:13;1.90;99.90
46508;DHT22;32223;53.654;10.014;2024-02-26T01:17:38;2.00;99.90
46508;DHT22;32223;53.654;10.014;2024-02-26T01:20:05;1.90;99.90
46508;DHT22;32223;53.654;10.014;2024-02-26T01:22:30;1.90;99.90
46508;DHT22;32223;53.654;10.014;2024-02-26T01:24:56;1.90;99.90
46508;DHT22;32223;53.654;10.014;2024-02-26T01:27:22;1.90;99.90
46508;DHT22;32223;53.654;10.014;2024-02-26T01:29:52;1.90;99.90
46508;DHT22;32223;53.654;10.014;2024-02-26T01:32:17;1.90;99.90
46508;DHT22;32223;53.654;10.014;2024-02-26T01:34:43;1.90;99.90
46508;DHT22;32223;53.654;10.014;2024-02-26T01:37:08;1.90;99.90
46508;DHT22;32223;53.654;10.014;2024-02-26T01:39:34;1.90;99.90
46508;DHT22;32223;53.654;10.014;2024-02-26T01:42:00;1.80;99.90
46508;DHT22;32223;53.654;10.014;2024-02-26T01:44:26;1.80;99.90
46508;DHT22;32223;53.654;10.014;2024-02-26T01:46:52;1.80;99.90
46508;DHT22;32223;53.654;10.014;2024-02-26T01:49:19;1.80;99.90
46508;DHT22;32223;53.654;10.014;2024-02-26T01:51:45;1.80;99.90
46508;DHT22;32223;53.654;10.014;2024-02-26T01:54:11;1.80;99.90
46508;DHT22;32223;53.654;10.014;2024-02-26T01:56:37;1.80;99.90
46508;DHT22;32223;53.654;10.014;2024-02-26T01:59:05;1.80;99.90
46508;DHT22;32223;53.654;10.014;2024-02-26T02:01:32;1.80;99.90
46508;DHT22;32223;53.654;10.014;2024-02-26T02:04:00;1.80;99.90
46508;DHT22;32223;53.654;10.014;2024-02-26T02:06:26;1.70;99.90
46508;DHT22;32223;53.654;10.014;2024-02-26T02:08:54;1.80;99.90
46508;DHT22;32223;53.654;10.014;2024-02-26T02:11:20;1.80;99.90
46508;DHT22;32223;53.654;10.014;2024-02-26T02:13:46;1.70;99.90
46508;DHT22;32223;53.654;10.014;2024-02-26T02:16:12;1.70;99.90
46508;DHT22;32223;53.654;10.014;2024-02-26T02:18:37;1.70;99.90
46508;DHT22;32223;53.654;10.014;2024-02-26T02:21:03;1.70;99.90
46508;DHT22;32223;53.654;10.014;2024-02-26T02:23:29;1.70;99.90
46508;DHT22;32223;53.654;10.014;2024-02-26T02:25:56;1.70;99.90
46508;DHT22;32223;53.654;10.014;2024-02-26T02:28:23;1.70;99.90
46508;DHT22;32223;53.654;10.014;2024-02-26T02:30:50;1.70;99.90
46508;DHT22;32223;53.654;10.014;2024-02-26T02:33:17;1.70;99.90
46508;DHT22;32223;53.654;10.014;2024-02-26T02:35:43;1.70;99.90
46508;DHT22;32223;53.654;10.014;2024-02-26T02:38:08;1.70;99.90
46508;DHT22;32223;53.654;10.014;2024-02-26T02:40:34;1.70;99.90
46508;DHT22;32223;53.654;10.014;2024-02-26T02:43:00;1.70;99.90
46508;DHT22;32223;53.654;10.014;2024-02-26T02:45:27;1.70;99.90
46508;DHT22;32223;53.654;10.014;2024-02-26T02:47:53;1.60;99.90
46508;DHT22;32223;53.654;10.014;2024-02-26T02:50:19;1.60;99.90
46508;DHT22;32223;53.654;10.014;2024-02-26T02:52:44;1.60;99.90
46508;DHT22;32223;53.654;10.014;2024-02-26T02:55:10;1.60;99.90
46508;DHT22;32223;53.654;10.014;2024-02-26T02:57:36;1.50;99.90
46508;DHT22;32223;53.654;10.014;2024-02-26T03:00:08;1.50;99.90
46508;DHT22;32223;53.654;10.014;2024-02-26T03:02:34;1.50;99.90
46508;DHT22;32223;53.654;10.014;2024-02-26T03:05:01;1.50;99.90
46508;DHT22;32223;53.654;10.014;2024-02-26T03:07:27;1.40;99.90
46508;DHT22;32223;53.654;10.014;2024-02-26T03:09:53;1.50;99.90
46508;DHT22;32223;53.654;10.014;2024-02-26T03:12:19;1.50;99.90
46508;DHT22;32223;53.654;10.014;2024-02-26T03:14:44;1.50;99.90
46508;DHT22;32223;53.654;10.014;2024-02-26T03:17:10;1.40;99.90
46508;DHT22;32223;53.654;10.014;2024-02-26T03:19:35;1.50;99.90
46508;DHT22;32223;53.654;10.014;2024-02-26T03:22:01;1.40;99.90
46508;DHT22;32223;53.654;10.014;2024-02-26T03:24:27;1.50;99.90
46508;DHT22;32223;53.654;10.014;2024-02-26T03:26:53;1.40;99.90
46508;DHT22;32223;53.654;10.014;2024-02-26T03:29:19;1.40;99.90
46508;DHT22;32223;53.654;10.014;2024-02-26T03:31:44;1.30;99.90
46508;DHT22;32223;53.654;10.014;2024-02-26T03:34:10;1.30;99.90
46508;DHT22;32223;53.654;10.014;2024-02-26T03:36:38;1.20;99.90
46508;DHT22;32223;53.654;10.014;2024-02-26T03:39:03;1.10;99.90
46508;DHT22;32223;53.654;10.014;2024-02-26T03:41:33;1.10;99.90
46508;DHT22;32223;53.654;10.014;2024-02-26T03:43:59;1.10;99.90
46508;DHT22;32223;53.654;10.014;2024-02-26T03:46:25;1.10;99.90
46508;DHT22;32223;53.654;10.014;2024-02-26T03:48:50;1.10;99.90
46508;DHT22;32223;53.654;10.014;2024-02-26T03:51:16;1.10;99.90
46508;DHT22;32223;53.654;10.014;2024-02-26T03:53:41;1.10;99.90
46508;DHT22;32223;53.654;10.014;2024-02-26T03:56:07;1.00;99.90
46508;DHT22;32223;53.654;10.014;2024-02-26T03:58:33;1.10;99.90
46508;DHT22;32223;53.654;10.014;2024-02-26T04:01:00;1.00;99.90
46508;DHT22;32223;53.654;10.014;2024-02-26T04:03:25;1.10;99.90
46508;DHT22;32223;53.654;10.014;2024-02-26T04:05:51;1.00;99.90
46508;DHT22;32223;53.654;10.014;2024-02-26T04:08:16;1.10;99.90
46508;DHT22;32223;53.654;10.014;2024-02-26T04:10:42;1.00;99.90
46508;DHT22;32223;53.654;10.014;2024-02-26T04:13:08;1.10;99.90
46508;DHT22;32223;53.654;10.014;2024-02-26T04:15:34;1.00;99.90
46508;DHT22;32223;53.654;10.014;2024-02-26T04:17:59;1.10;99.90
46508;DHT22;32223;53.654;10.014;2024-02-26T04:20:25;1.00;99.90
46508;DHT22;32223;53.654;10.014;2024-02-26T04:22:51;1.00;99.90
46508;DHT22;32223;53.654;10.014;2024-02-26T04:25:16;1.00;99.90
46508;DHT22;32223;53.654;10.014;2024-02-26T04:27:42;1.00;99.90
46508;DHT22;32223;53.654;10.014;2024-02-26T04:30:08;0.90;99.90
46508;DHT22;32223;53.654;10.014;2024-02-26T04:32:34;0.90;99.90
46508;DHT22;32223;53.654;10.014;2024-02-26T04:35:03;0.90;99.90
46508;DHT22;32223;53.654;10.014;2024-02-26T04:37:29;0.80;99.90
46508;DHT22;32223;53.654;10.014;2024-02-26T04:39:58;0.80;99.90
46508;DHT22;32223;53.654;10.014;2024-02-26T04:42:24;0.80;99.90
46508;DHT22;32223;53.654;10.014;2024-02-26T04:44:49;0.80;99.90
46508;DHT22;32223;53.654;10.014;2024-02-26T04:47:15;0.90;99.90
46508;DHT22;32223;53.654;10.014;2024-02-26T04:49:41;0.80;99.90
46508;DHT22;32223;53.654;10.014;2024-02-26T04:52:06;0.80;99.90
46508;DHT22;32223;53.654;10.014;2024-02-26T04:54:32;0.80;99.90
46508;DHT22;32223;53.654;10.014;2024-02-26T04:56:57;0.90;99.90
46508;DHT22;32223;53.654;10.014;2024-02-26T04:59:23;0.80;99.90
46508;DHT22;32223;53.654;10.014;2024-02-26T05:01:48;0.80;99.90
46508;DHT22;32223;53.654;10.014;2024-02-26T05:04:14;0.80;99.90
46508;DHT22;32223;53.654;10.014;2024-02-26T05:06:40;0.80;99.90
46508;DHT22;32223;53.654;10.014;2024-02-26T05:09:05;0.80;99.90
46508;DHT22;32223;53.654;10.014;2024-02-26T05:11:31;0.80;99.90
46508;DHT22;32223;53.654;10.014;2024-02-26T05:13:57;0.80;99.90
46508;DHT22;32223;53.654;10.014;2024-02-26T05:16:22;0.70;99.90
46508;DHT22;32223;53.654;10.014;2024-02-26T05:18:50;0.80;99.90
46508;DHT22;32223;53.654;10.014;2024-02-26T05:21:15;0.80;99.90
46508;DHT22;32223;53.654;10.014;2024-02-26T05:23:41;0.80;99.90
46508;DHT22;32223;53.654;10.014;2024-02-26T05:26:09;0.70;99.90
46508;DHT22;32223;53.654;10.014;2024-02-26T05:28:34;0.70;99.90
46508;DHT22;32223;53.654;10.014;2024-02-26T05:31:01;0.70;99.90
46508;DHT22;32223;53.654;10.014;2024-02-26T05:33:27;0.70;99.90
46508;DHT22;32223;53.654;10.014;2024-02-26T05:35:52;0.70;99.90
46508;DHT22;32223;53.654;10.014;2024-02-26T05:38:18;0.70;99.90
46508;DHT22;32223;53.654;10.014;2024-02-26T05:40:43;0.70;99.90
46508;DHT22;32223;53.654;10.014;2024-02-26T05:43:11;0.70;99.90
46508;DHT22;32223;53.654;10.014;2024-02-26T05:45:36;0.70;99.90
46508;DHT22;32223;53.654;10.014;2024-02-26T05:48:02;0.70;99.90
46508;DHT22;32223;53.654;10.014;2024-02-26T05:50:28;0.70;99.90
46508;DHT22;32223;53.654;10.014;2024-02-26T05:52:54;0.70;99.90
46508;DHT22;32223;53.654;10.014;2024-02-26T05:55:19;0.70;99.90
46508;DHT22;32223;53.654;10.014;2024-02-26T05:57:45;0.70;99.90
46508;DHT22;32223;53.654;10.014;2024-02-26T06:00:11;0.70;99.90
46508;DHT22;32223;53.654;10.014;2024-02-26T06:02:38;0.70;99.90
46508;DHT22;32223;53.654;10.014;2024-02-26T06:05:04;0.80;99.90
46508;DHT22;32223;53.654;10.014;2024-02-26T06:07:29;0.80;99.90
46508;DHT22;32223;53.654;10.014;2024-02-26T06:09:55;0.80;99.90
46508;DHT22;32223;53.654;10.014;2024-02-26T06:12:20;0.80;99.90
46508;DHT22;32223;53.654;10.014;2024-02-26T06:14:47;0.80;99.90
46508;DHT22;32223;53.654;10.014;2024-02-26T06:17:12;0.80;99.90
46508;DHT22;32223;53.654;10.014;2024-02-26T06:19:38;0.80;99.90
46508;DHT22;32223;53.654;10.014;2024-02-26T06:22:03;0.80;99.90
46508;DHT22;32223;53.654;10.014;2024-02-26T06:24:29;0.80;99.90
46508;DHT22;32223;53.654;10.014;2024-02-26T06:26:54;0.80;99.90
46508;DHT22;32223;53.654;10.014;2024-02-26T06:29:20;0.80;99.90
46508;DHT22;32223;53.654;10.014;2024-02-26T06:31:45;0.80;99.90
46508;DHT22;32223;53.654;10.014;2024-02-26T06:34:12;0.80;99.90
46508;DHT22;32223;53.654;10.014;2024-02-26T06:36:38;0.90;99.90
46508;DHT22;32223;53.654;10.014;2024-02-26T06:39:04;0.80;99.90
46508;DHT22;32223;53.654;10.014;2024-02-26T06:41:30;0.90;99.90
46508;DHT22;32223;53.654;10.014;2024-02-26T06:43:56;0.90;99.90
46508;DHT22;32223;53.654;10.014;2024-02-26T06:46:22;0.90;99.90
46508;DHT22;32223;53.654;10.014;2024-02-26T06:48:48;0.90;99.90
46508;DHT22;32223;53.654;10.014;2024-02-26T06:51:14;0.90;99.90
46508;DHT22;32223;53.654;10.014;2024-02-26T06:53:40;1.00;99.90
46508;DHT22;32223;53.654;10.014;2024-02-26T06:56:05;1.00;99.90
46508;DHT22;32223;53.654;10.014;2024-02-26T06:58:31;1.10;99.90
46508;DHT22;32223;53.654;10.014;2024-02-26T07:00:57;1.10;99.90
46508;DHT22;32223;53.654;10.014;2024-02-26T07:03:22;1.10;99.90
46508;DHT22;32223;53.654;10.014;2024-02-26T07:05:49;1.10;99.90
46508;DHT22;32223;53.654;10.014;2024-02-26T07:08:15;1.10;99.90
46508;DHT22;32223;53.654;10.014;2024-02-26T07:10:41;1.10;99.90
46508;DHT22;32223;53.654;10.014;2024-02-26T07:13:07;1.10;99.90
46508;DHT22;32223;53.654;10.014;2024-02-26T07:15:32;1.00;99.90
46508;DHT22;32223;53.654;10.014;2024-02-26T07:17:58;1.00;99.90
46508;DHT22;32223;53.654;10.014;2024-02-26T07:20:31;0.90;99.90
46508;DHT22;32223;53.654;10.014;2024-02-26T07:22:57;0.90;99.90
46508;DHT22;32223;53.654;10.014;2024-02-26T07:25:23;0.90;99.90
46508;DHT22;32223;53.654;10.014;2024-02-26T07:27:50;0.90;99.90
46508;DHT22;32223;53.654;10.014;2024-02-26T07:30:15;0.90;99.90
46508;DHT22;32223;53.654;10.014;2024-02-26T07:32:42;1.00;99.90
46508;DHT22;32223;53.654;10.014;2024-02-26T07:35:08;1.00;99.90
46508;DHT22;32223;53.654;10.014;2024-02-26T07:37:34;1.00;99.90
46508;DHT22;32223;53.654;10.014;2024-02-26T07:40:00;1.00;99.90
46508;DHT22;32223;53.654;10.014;2024-02-26T07:42:25;1.00;99.90
46508;DHT22;32223;53.654;10.014;2024-02-26T07:44:51;1.00;99.90
46508;DHT22;32223;53.654;10.014;2024-02-26T07:47:18;1.10;99.90
46508;DHT22;32223;53.654;10.014;2024-02-26T07:49:43;1.10;99.90
46508;DHT22;32223;53.654;10.014;2024-02-26T07:52:10;1.10;99.90
46508;DHT22;32223;53.654;10.014;2024-02-26T07:54:36;1.10;99.90
46508;DHT22;32223;53.654;10.014;2024-02-26T07:57:02;1.10;99.90
46508;DHT22;32223;53.654;10.014;2024-02-26T07:59:31;1.20;99.90
46508;DHT22;32223;53.654;10.014;2024-02-26T08:01:56;1.30;99.90
46508;DHT22;32223;53.654;10.014;2024-02-26T08:04:22;1.30;99.90
46508;DHT22;32223;53.654;10.014;2024-02-26T08:06:47;1.30;99.90
46508;DHT22;32223;53.654;10.014;2024-02-26T08:09:13;1.40;99.90
46508;DHT22;32223;53.654;10.014;2024-02-26T08:11:39;1.40;99.90
46508;DHT22;32223;53.654;10.014;2024-02-26T08:14:05;1.50;99.90
46508;DHT22;32223;53.654;10.014;2024-02-26T08:16:30;1.60;99.90
46508;DHT22;32223;53.654;10.014;2024-02-26T08:18:56;1.60;99.90
46508;DHT22;32223;53.654;10.014;2024-02-26T08:21:21;1.60;99.90
46508;DHT22;32223;53.654;10.014;2024-02-26T08:23:47;1.60;99.90
46508;DHT22;32223;53.654;10.014;2024-02-26T08:26:13;1.60;99.90
46508;DHT22;32223;53.654;10.014;2024-02-26T08:28:38;1.70;99.90
46508;DHT22;32223;53.654;10.014;2024-02-26T08:31:04;1.70;99.90
46508;DHT22;32223;53.654;10.014;2024-02-26T08:33:30;1.70;99.90
46508;DHT22;32223;53.654;10.014;2024-02-26T08:35:56;1.60;99.90
46508;DHT22;32223;53.654;10.014;2024-02-26T08:38:22;1.60;99.90
46508;DHT22;32223;53.654;10.014;2024-02-26T08:40:48;1.60;99.90
46508;DHT22;32223;53.654;10.014;2024-02-26T08:43:14;1.70;99.90
46508;DHT22;32223;53.654;10.014;2024-02-26T08:45:39;1.70;99.90
46508;DHT22;32223;53.654;10.014;2024-02-26T08:48:05;1.70;99.90
46508;DHT22;32223;53.654;10.014;2024-02-26T08:50:31;1.70;99.90
46508;DHT22;32223;53.654;10.014;2024-02-26T08:52:57;1.80;99.90
46508;DHT22;32223;53.654;10.014;2024-02-26T08:55:22;1.80;99.90
46508;DHT22;32223;53.654;10.014;2024-02-26T08:57:48;1.90;99.90
46508;DHT22;32223;53.654;10.014;2024-02-26T09:00:14;1.90;99.90
46508;DHT22;32223;53.654;10.014;2024-02-26T09:02:41;2.00;99.90
46508;DHT22;32223;53.654;10.014;2024-02-26T09:05:09;2.00;99.90
46508;DHT22;32223;53.654;10.014;2024-02-26T09:07:35;2.10;99.90
46508;DHT22;32223;53.654;10.014;2024-02-26T09:10:02;2.10;99.90
46508;DHT22;32223;53.654;10.014;2024-02-26T09:12:27;2.20;99.90
46508;DHT22;32223;53.654;10.014;2024-02-26T09:14:53;2.30;99.90
46508;DHT22;32223;53.654;10.014;2024-02-26T09:17:21;2.40;99.90
46508;DHT22;32223;53.654;10.014;2024-02-26T09:19:46;2.50;99.90
46508;DHT22;32223;53.654;10.014;2024-02-26T09:22:12;2.60;99.90
46508;DHT22;32223;53.654;10.014;2024-02-26T09:24:37;2.70;99.90
46508;DHT22;32223;53.654;10.014;2024-02-26T09:27:03;2.70;99.90
46508;DHT22;32223;53.654;10.014;2024-02-26T09:29:29;2.80;99.90
46508;DHT22;32223;53.654;10.014;2024-02-26T09:31:54;2.80;99.90
46508;DHT22;32223;53.654;10.014;2024-02-26T09:34:20;3.00;99.90
46508;DHT22;32223;53.654;10.014;2024-02-26T09:36:45;3.10;99.90
46508;DHT22;32223;53.654;10.014;2024-02-26T09:39:12;3.10;99.90
46508;DHT22;32223;53.654;10.014;2024-02-26T09:41:40;3.20;99.90
46508;DHT22;32223;53.654;10.014;2024-02-26T09:44:06;3.20;99.90
46508;DHT22;32223;53.654;10.014;2024-02-26T09:46:33;3.30;99.90
46508;DHT22;32223;53.654;10.014;2024-02-26T09:48:59;3.30;99.90
46508;DHT22;32223;53.654;10.014;2024-02-26T09:51:24;3.40;99.90
46508;DHT22;32223;53.654;10.014;2024-02-26T09:53:52;3.50;99.90
46508;DHT22;32223;53.654;10.014;2024-02-26T09:56:18;3.50;99.90
46508;DHT22;32223;53.654;10.014;2024-02-26T09:58:44;3.40;99.90
46508;DHT22;32223;53.654;10.014;2024-02-26T10:01:16;3.40;99.90
46508;DHT22;32223;53.654;10.014;2024-02-26T10:03:42;3.60;99.90
46508;DHT22;32223;53.654;10.014;2024-02-26T10:06:10;3.70;99.90
46508;DHT22;32223;53.654;10.014;2024-02-26T10:08:36;3.70;99.90
46508;DHT22;32223;53.654;10.014;2024-02-26T10:11:04;3.90;99.90
46508;DHT22;32223;53.654;10.014;2024-02-26T10:13:30;4.00;99.90
46508;DHT22;32223;53.654;10.014;2024-02-26T10:15:56;4.00;99.90
46508;DHT22;32223;53.654;10.014;2024-02-26T10:18:23;4.10;99.90
46508;DHT22;32223;53.654;10.014;2024-02-26T10:21:00;4.20;99.90
46508;DHT22;32223;53.654;10.014;2024-02-26T10:23:26;4.30;99.90
46508;DHT22;32223;53.654;10.014;2024-02-26T10:25:55;4.30;99.90
46508;DHT22;32223;53.654;10.014;2024-02-26T10:28:21;4.30;99.90
46508;DHT22;32223;53.654;10.014;2024-02-26T10:30:47;4.20;99.90
46508;DHT22;32223;53.654;10.014;2024-02-26T10:33:13;4.10;99.90
46508;DHT22;32223;53.654;10.014;2024-02-26T10:35:40;4.10;99.90
46508;DHT22;32223;53.654;10.014;2024-02-26T10:38:07;4.10;99.90
46508;DHT22;32223;53.654;10.014;2024-02-26T10:40:33;4.20;99.90
46508;DHT22;32223;53.654;10.014;2024-02-26T10:42:58;4.30;99.90
46508;DHT22;32223;53.654;10.014;2024-02-26T10:45:24;4.30;99.90
46508;DHT22;32223;53.654;10.014;2024-02-26T10:47:50;4.50;99.90
46508;DHT22;32223;53.654;10.014;2024-02-26T10:50:16;4.70;99.90
46508;DHT22;32223;53.654;10.014;2024-02-26T10:52:42;4.80;99.90
46508;DHT22;32223;53.654;10.014;2024-02-26T10:55:14;4.80;99.90
46508;DHT22;32223;53.654;10.014;2024-02-26T10:57:41;4.80;99.90
46508;DHT22;32223;53.654;10.014;2024-02-26T11:00:10;5.00;99.90
46508;DHT22;32223;53.654;10.014;2024-02-26T11:02:38;5.10;99.90
46508;DHT22;32223;53.654;10.014;2024-02-26T11:05:06;5.30;99.90
46508;DHT22;32223;53.654;10.014;2024-02-26T11:07:33;5.40;99.90
46508;DHT22;32223;53.654;10.014;2024-02-26T11:10:00;5.60;99.90
46508;DHT22;32223;53.654;10.014;2024-02-26T11:12:28;5.70;99.90
46508;DHT22;32223;53.654;10.014;2024-02-26T11:14:55;5.80;99.90
46508;DHT22;32223;53.654;10.014;2024-02-26T11:17:22;5.90;99.90
46508;DHT22;32223;53.654;10.014;2024-02-26T11:19:50;5.90;99.90
46508;DHT22;32223;53.654;10.014;2024-02-26T11:22:17;6.00;99.90
46508;DHT22;32223;53.654;10.014;2024-02-26T11:24:43;6.20;99.90
46508;DHT22;32223;53.654;10.014;2024-02-26T11:27:10;6.30;99.90
46508;DHT22;32223;53.654;10.014;2024-02-26T11:29:51;6.50;99.90
46508;DHT22;32223;53.654;10.014;2024-02-26T11:32:17;6.70;99.90
46508;DHT22;32223;53.654;10.014;2024-02-26T11:34:44;6.90;99.90
46508;DHT22;32223;53.654;10.014;2024-02-26T11:37:19;6.90;99.90
46508;DHT22;32223;53.654;10.014;2024-02-26T11:39:46;7.00;99.90
46508;DHT22;32223;53.654;10.014;2024-02-26T11:42:15;7.40;99.90
46508;DHT22;32223;53.654;10.014;2024-02-26T11:44:41;7.40;99.90
46508;DHT22;32223;53.654;10.014;2024-02-26T11:47:20;7.40;99.90
46508;DHT22;32223;53.654;10.014;2024-02-26T11:49:46;7.40;99.90
46508;DHT22;32223;53.654;10.014;2024-02-26T11:52:13;7.40;99.90
46508;DHT22;32223;53.654;10.014;2024-02-26T11:54:49;7.50;99.90
46508;DHT22;32223;53.654;10.014;2024-02-26T12:00:13;7.60;99.90
46508;DHT22;32223;53.654;10.014;2024-02-26T12:02:46;7.60;99.90
46508;DHT22;32223;53.654;10.014;2024-02-26T12:05:19;7.60;99.90
46508;DHT22;32223;53.654;10.014;2024-02-26T12:07:47;7.50;99.90
46508;DHT22;32223;53.654;10.014;2024-02-26T12:10:30;7.20;99.90
46508;DHT22;32223;53.654;10.014;2024-02-26T12:13:02;7.20;99.90
46508;DHT22;32223;53.654;10.014;2024-02-26T12:16:21;7.20;99.90
46508;DHT22;32223;53.654;10.014;2024-02-26T12:18:18;7.10;99.90
46508;DHT22;32223;53.654;10.014;2024-02-26T12:20:44;6.90;99.90
46508;DHT22;32223;53.654;10.014;2024-02-26T12:23:15;6.80;99.90
46508;DHT22;32223;53.654;10.014;2024-02-26T12:25:41;6.80;99.90
46508;DHT22;32223;53.654;10.014;2024-02-26T12:28:09;6.60;99.90
46508;DHT22;32223;53.654;10.014;2024-02-26T12:30:35;6.60;99.90
46508;DHT22;32223;53.654;10.014;2024-02-26T12:33:02;6.50;99.90
46508;DHT22;32223;53.654;10.014;2024-02-26T12:35:28;6.50;99.90
46508;DHT22;32223;53.654;10.014;2024-02-26T12:37:56;6.30;99.90
46508;DHT22;32223;53.654;10.014;2024-02-26T12:40:22;6.20;99.90
46508;DHT22;32223;53.654;10.014;2024-02-26T12:42:48;6.20;99.90
46508;DHT22;32223;53.654;10.014;2024-02-26T12:45:14;6.30;99.90
46508;DHT22;32223;53.654;10.014;2024-02-26T12:47:45;6.40;99.90
46508;DHT22;32223;53.654;10.014;2024-02-26T12:50:17;6.50;99.90
46508;DHT22;32223;53.654;10.014;2024-02-26T12:52:47;6.60;99.90
46508;DHT22;32223;53.654;10.014;2024-02-26T12:55:20;6.50;99.90
46508;DHT22;32223;53.654;10.014;2024-02-26T12:57:46;6.50;99.90
46508;DHT22;32223;53.654;10.014;2024-02-26T13:00:16;6.50;99.90
46508;DHT22;32223;53.654;10.014;2024-02-26T13:02:44;6.40;99.90
46508;DHT22;32223;53.654;10.014;2024-02-26T13:05:12;6.40;99.90
46508;DHT22;32223;53.654;10.014;2024-02-26T13:07:45;6.30;99.90
46508;DHT22;32223;53.654;10.014;2024-02-26T13:10:13;6.30;99.90
46508;DHT22;32223;53.654;10.014;2024-02-26T13:12:47;6.40;99.90
46508;DHT22;32223;53.654;10.014;2024-02-26T13:15:17;6.40;99.90
46508;DHT22;32223;53.654;10.014;2024-02-26T13:17:47;6.40;99.90
46508;DHT22;32223;53.654;10.014;2024-02-26T13:20:24;6.40;99.90
46508;DHT22;32223;53.654;10.014;2024-02-26T13:22:50;6.40;99.90
46508;DHT22;32223;53.654;10.014;2024-02-26T13:25:20;6.50;99.90
46508;DHT22;32223;53.654;10.014;2024-02-26T13:27:46;6.50;99.90
46508;DHT22;32223;53.654;10.014;2024-02-26T13:30:12;6.50;99.90
46508;DHT22;32223;53.654;10.014;2024-02-26T13:32:39;6.60;99.90
46508;DHT22;32223;53.654;10.014;2024-02-26T13:35:09;6.80;99.90
46508;DHT22;32223;53.654;10.014;2024-02-26T13:37:36;6.80;99.90
46508;DHT22;32223;53.654;10.014;2024-02-26T13:40:09;7.00;99.90
46508;DHT22;32223;53.654;10.014;2024-02-26T13:42:38;7.10;99.90
46508;DHT22;32223;53.654;10.014;2024-02-26T13:45:04;7.00;99.90
46508;DHT22;32223;53.654;10.014;2024-02-26T13:47:34;7.10;99.90
46508;DHT22;32223;53.654;10.014;2024-02-26T13:49:59;7.20;99.90
46508;DHT22;32223;53.654;10.014;2024-02-26T13:52:26;7.40;99.90
46508;DHT22;32223;53.654;10.014;2024-02-26T13:54:51;7.30;99.90
46508;DHT22;32223;53.654;10.014;2024-02-26T13:57:18;7.30;99.90
46508;DHT22;32223;53.654;10.014;2024-02-26T13:59:44;7.30;99.90
46508;DHT22;32223;53.654;10.014;2024-02-26T14:02:09;7.40;99.90
46508;DHT22;32223;53.654;10.014;2024-02-26T14:04:36;7.20;99.90
46508;DHT22;32223;53.654;10.014;2024-02-26T14:07:02;7.10;99.90
46508;DHT22;32223;53.654;10.014;2024-02-26T14:09:28;7.30;99.90
46508;DHT22;32223;53.654;10.014;2024-02-26T14:11:54;7.30;99.90
46508;DHT22;32223;53.654;10.014;2024-02-26T14:14:20;7.50;99.90
46508;DHT22;32223;53.654;10.014;2024-02-26T14:16:45;7.60;99.90
46508;DHT22;32223;53.654;10.014;2024-02-26T14:19:11;7.90;99.90
46508;DHT22;32223;53.654;10.014;2024-02-26T14:21:37;8.00;99.90
46508;DHT22;32223;53.654;10.014;2024-02-26T14:24:02;7.80;99.90
46508;DHT22;32223;53.654;10.014;2024-02-26T14:26:29;7.70;99.90
46508;DHT22;32223;53.654;10.014;2024-02-26T14:28:54;7.80;99.90
46508;DHT22;32223;53.654;10.014;2024-02-26T14:31:21;7.90;99.90
46508;DHT22;32223;53.654;10.014;2024-02-26T14:33:47;7.90;99.90
46508;DHT22;32223;53.654;10.014;2024-02-26T14:36:13;8.20;99.90
46508;DHT22;32223;53.654;10.014;2024-02-26T14:38:39;8.10;99.90
46508;DHT22;32223;53.654;10.014;2024-02-26T14:41:05;8.10;99.90
46508;DHT22;32223;53.654;10.014;2024-02-26T14:43:31;8.10;99.90
46508;DHT22;32223;53.654;10.014;2024-02-26T14:46:00;8.00;99.90
46508;DHT22;32223;53.654;10.014;2024-02-26T14:48:25;8.20;99.90
46508;DHT22;32223;53.654;10.014;2024-02-26T14:50:52;7.90;99.90
46508;DHT22;32223;53.654;10.014;2024-02-26T14:53:18;7.90;99.90
46508;DHT22;32223;53.654;10.014;2024-02-26T14:55:44;7.80;99.90
46508;DHT22;32223;53.654;10.014;2024-02-26T14:58:10;7.60;99.90
46508;DHT22;32223;53.654;10.014;2024-02-26T15:00:39;7.30;99.90
46508;DHT22;32223;53.654;10.014;2024-02-26T15:03:04;7.00;99.90
46508;DHT22;32223;53.654;10.014;2024-02-26T15:05:32;6.90;99.90
46508;DHT22;32223;53.654;10.014;2024-02-26T15:08:36;6.80;99.90
46508;DHT22;32223;53.654;10.014;2024-02-26T15:11:05;6.60;99.90
46508;DHT22;32223;53.654;10.014;2024-02-26T15:13:57;6.30;99.90
46508;DHT22;32223;53.654;10.014;2024-02-26T15:16:22;6.10;99.90
46508;DHT22;32223;53.654;10.014;2024-02-26T15:18:51;6.00;99.90
46508;DHT22;32223;53.654;10.014;2024-02-26T15:21:22;6.00;99.90
46508;DHT22;32223;53.654;10.014;2024-02-26T15:23:48;6.00;99.90
46508;DHT22;32223;53.654;10.014;2024-02-26T15:26:17;6.00;99.90
46508;DHT22;32223;53.654;10.014;2024-02-26T15:28:46;5.90;99.90
46508;DHT22;32223;53.654;10.014;2024-02-26T15:31:12;5.80;99.90